createdAt,value
2022-10-02T00:00:46.415Z,0.20
2022-10-02T00:03:23.300Z,0.20
2022-10-02T00:06:02.901Z,0.43
2022-10-02T00:08:37.891Z,0.30
2022-10-02T00:11:20.675Z,0.50
2022-10-02T00:13:58.447Z,0.30
2022-10-02T00:16:45.097Z,0.30
2022-10-02T00:19:20.410Z,0.13
2022-10-02T00:22:06.294Z,0.23
2022-10-02T00:24:49.108Z,0.33
2022-10-02T00:27:34.695Z,0.30
2022-10-02T00:30:06.651Z,0.30
2022-10-02T00:32:55.845Z,0.23
2022-10-02T00:35:53.521Z,0.20
2022-10-02T00:38:50.625Z,0.40
2022-10-02T00:41:48.740Z,0.20
2022-10-02T00:44:44.991Z,0.40
2022-10-02T00:47:24.975Z,0.40
2022-10-02T00:50:27.520Z,0.30
2022-10-02T00:53:30.659Z,0.30
2022-10-02T00:56:38.559Z,0.33
2022-10-02T00:59:37.052Z,0.30
2022-10-02T01:02:16.889Z,0.43
2022-10-02T01:04:48.065Z,0.20
2022-10-02T01:07:17.585Z,0.20
2022-10-02T01:09:47.900Z,0.47
2022-10-02T01:12:17.722Z,0.37
2022-10-02T01:14:47.161Z,0.20
2022-10-02T01:17:32.605Z,0.30
2022-10-02T01:20:06.881Z,0.40
2022-10-02T01:22:43.811Z,0.20
2022-10-02T01:25:14.167Z,0.43
2022-10-02T01:27:44.043Z,0.20
2022-10-02T01:30:21.888Z,0.40
2022-10-02T01:33:04.702Z,0.30
2022-10-02T01:35:38.725Z,0.20
2022-10-02T01:38:13.542Z,0.40
2022-10-02T01:40:43.520Z,0.40
2022-10-02T01:43:35.148Z,0.50
2022-10-02T01:46:14.887Z,0.40
2022-10-02T01:49:06.756Z,0.30
2022-10-02T01:51:40.817Z,0.40
2022-10-02T01:54:51.036Z,0.30
2022-10-02T01:57:47.663Z,0.30
2022-10-02T02:00:25.025Z,0.25
2022-10-02T02:03:01.856Z,0.50
2022-10-02T02:05:47.744Z,0.23
2022-10-02T02:08:47.418Z,0.40
2022-10-02T02:11:21.908Z,0.20
2022-10-02T02:14:17.531Z,0.23
2022-10-02T02:16:51.400Z,0.30
2022-10-02T02:19:37.589Z,0.20
2022-10-02T02:22:14.295Z,0.20
2022-10-02T02:25:00.299Z,0.20
2022-10-02T02:27:34.382Z,0.40
2022-10-02T02:30:08.441Z,0.30
2022-10-02T02:32:43.441Z,0.30
2022-10-02T02:35:17.492Z,0.27
2022-10-02T02:37:50.992Z,0.20
2022-10-02T02:40:30.923Z,0.40
2022-10-02T02:43:20.240Z,0.30
2022-10-02T02:46:00.303Z,0.30
2022-10-02T02:48:35.219Z,0.50
2022-10-02T02:51:15.350Z,0.53
2022-10-02T02:54:01.399Z,0.30
2022-10-02T02:56:34.205Z,0.27
2022-10-02T02:59:13.792Z,0.30
2022-10-02T03:01:44.274Z,0.50
2022-10-02T03:04:17.069Z,0.43
2022-10-02T03:06:50.438Z,0.30
2022-10-02T03:09:23.978Z,0.30
2022-10-02T03:12:23.344Z,0.33
2022-10-02T03:15:29.145Z,0.23
2022-10-02T03:18:08.634Z,0.50
2022-10-02T03:21:06.031Z,0.37
2022-10-02T03:23:52.069Z,0.30
2022-10-02T03:26:38.540Z,0.40
2022-10-02T03:29:18.929Z,0.40
2022-10-02T03:31:50.357Z,0.43
2022-10-02T03:34:20.694Z,0.30
2022-10-02T03:36:50.479Z,0.40
2022-10-02T03:39:25.112Z,0.23
2022-10-02T03:41:51.236Z,0.30
2022-10-02T03:44:20.750Z,0.50
2022-10-02T03:46:50.298Z,0.40
2022-10-02T03:49:20.835Z,0.50
2022-10-02T03:51:50.284Z,0.40
2022-10-02T03:54:22.335Z,0.40
2022-10-02T03:57:05.559Z,0.40
2022-10-02T04:00:23.998Z,0.47
2022-10-02T04:03:07.081Z,0.30
2022-10-02T04:05:49.869Z,0.40
2022-10-02T04:08:35.702Z,0.20
2022-10-02T04:11:27.512Z,0.50
2022-10-02T04:14:07.230Z,0.50
2022-10-02T04:16:53.143Z,0.40
2022-10-02T04:19:36.309Z,0.53
2022-10-02T04:22:29.902Z,0.50
2022-10-02T04:25:15.713Z,0.30
2022-10-02T04:28:18.697Z,0.33
2022-10-02T04:30:48.167Z,0.47
2022-10-02T04:33:21.180Z,0.60
2022-10-02T04:35:57.832Z,0.40
2022-10-02T04:38:43.531Z,0.50
2022-10-02T04:41:41.290Z,0.47
2022-10-02T04:44:40.454Z,0.50
2022-10-02T04:47:31.893Z,0.40
2022-10-02T04:50:47.792Z,0.40
2022-10-02T04:53:36.680Z,0.60
2022-10-02T04:56:50.285Z,0.40
2022-10-02T04:59:29.780Z,0.40
2022-10-02T05:02:38.425Z,0.30
2022-10-02T05:05:38.011Z,0.30
2022-10-02T05:08:42.136Z,0.40
2022-10-02T05:11:33.178Z,0.40
2022-10-02T05:14:16.150Z,0.40
2022-10-02T05:16:55.854Z,0.30
2022-10-02T05:19:46.905Z,0.50
2022-10-02T05:22:45.220Z,0.47
2022-10-02T05:25:21.905Z,0.27
2022-10-02T05:27:58.947Z,0.30
2022-10-02T05:30:32.999Z,0.30
2022-10-02T05:33:15.616Z,0.30
2022-10-02T05:36:08.144Z,0.30
2022-10-02T05:39:12.063Z,0.57
2022-10-02T05:42:16.589Z,0.37
2022-10-02T05:45:22.882Z,0.30
2022-10-02T05:47:56.158Z,0.20
2022-10-02T05:50:36.376Z,0.40
2022-10-02T05:53:31.871Z,0.40
2022-10-02T05:56:15.532Z,0.57
2022-10-02T05:59:01.299Z,0.27
2022-10-02T06:01:41.333Z,0.40
2022-10-02T06:04:42.315Z,0.33
2022-10-02T06:07:17.899Z,0.40
2022-10-02T06:09:57.665Z,0.40
2022-10-02T06:12:55.637Z,0.30
2022-10-02T06:15:29.701Z,0.40
2022-10-02T06:18:09.217Z,0.30
2022-10-02T06:20:58.332Z,0.20
2022-10-02T06:23:38.011Z,0.40
2022-10-02T06:26:17.886Z,0.40
2022-10-02T06:29:04.474Z,0.30
2022-10-02T06:31:56.463Z,0.40
2022-10-02T06:34:27.171Z,0.30
2022-10-02T06:37:26.916Z,0.30
2022-10-02T06:40:09.748Z,0.50
2022-10-02T06:43:04.818Z,0.40
2022-10-02T06:46:14.731Z,0.37
2022-10-02T06:49:04.008Z,0.40
2022-10-02T06:51:52.954Z,0.30
2022-10-02T06:55:04.886Z,0.40
2022-10-02T06:57:53.303Z,0.70
2022-10-02T07:00:23.726Z,0.53
2022-10-02T07:03:26.224Z,0.67
2022-10-02T07:06:22.935Z,0.70
2022-10-02T07:09:30.467Z,0.50
2022-10-02T07:12:12.550Z,0.67
2022-10-02T07:15:07.206Z,0.50
2022-10-02T07:17:55.573Z,0.70
2022-10-02T07:20:50.536Z,0.80
2022-10-02T07:23:50.707Z,0.50
2022-10-02T07:26:45.838Z,0.90
2022-10-02T07:29:41.079Z,0.83
2022-10-02T07:32:35.241Z,0.80
2022-10-02T07:35:36.543Z,0.90
2022-10-02T07:38:45.441Z,0.83
2022-10-02T07:41:36.296Z,1.20
2022-10-02T07:44:35.644Z,0.67
2022-10-02T07:47:31.008Z,0.70
2022-10-02T07:50:26.998Z,0.87
2022-10-02T07:53:30.983Z,1.30
2022-10-02T07:56:01.830Z,0.70
2022-10-02T07:58:45.177Z,1.03
2022-10-02T08:01:25.077Z,0.80
2022-10-02T08:04:04.836Z,1.23
2022-10-02T08:06:36.736Z,0.93
2022-10-02T08:09:26.192Z,1.20
2022-10-02T08:12:00.223Z,1.07
2022-10-02T08:15:02.025Z,0.90
2022-10-02T08:18:16.446Z,1.07
2022-10-02T08:20:41.489Z,0.80
2022-10-02T08:23:49.889Z,1.10
2022-10-02T08:26:39.086Z,0.90
2022-10-02T08:29:19.655Z,1.20
2022-10-02T08:31:52.972Z,1.10
2022-10-02T08:34:25.673Z,1.17
2022-10-02T08:37:18.001Z,0.80
2022-10-02T08:40:06.319Z,1.10
2022-10-02T08:42:52.814Z,1.10
2022-10-02T08:45:46.584Z,0.90
2022-10-02T08:48:44.137Z,0.93
2022-10-02T08:51:58.747Z,1.30
2022-10-02T08:55:01.171Z,1.30
2022-10-02T08:58:26.857Z,1.33
2022-10-02T09:01:16.000Z,1.17
2022-10-02T09:04:13.079Z,1.47
2022-10-02T09:07:15.545Z,1.50
2022-10-02T09:10:28.395Z,1.60
2022-10-02T09:13:40.094Z,1.10
2022-10-02T09:16:33.183Z,1.20
2022-10-02T09:19:07.575Z,1.20
2022-10-02T09:22:01.799Z,1.47
2022-10-02T09:25:14.056Z,1.30
2022-10-02T09:28:05.665Z,1.50
2022-10-02T09:30:47.911Z,1.47
2022-10-02T09:33:44.478Z,1.37
2022-10-02T09:36:38.239Z,1.07
2022-10-02T09:39:48.768Z,1.20
2022-10-02T09:42:57.432Z,1.10
2022-10-02T09:45:40.519Z,1.30
2022-10-02T09:48:54.111Z,1.17
2022-10-02T09:51:41.093Z,1.00
2022-10-02T09:54:34.078Z,1.30
2022-10-02T09:57:54.306Z,1.10
2022-10-02T10:00:40.399Z,0.90
2022-10-02T10:03:44.278Z,0.80
2022-10-02T10:06:39.311Z,1.07
2022-10-02T10:09:33.626Z,0.60
2022-10-02T10:12:51.496Z,0.80
2022-10-02T10:15:51.228Z,0.93
2022-10-02T10:18:56.453Z,0.63
2022-10-02T10:22:09.496Z,0.80
2022-10-02T10:25:03.907Z,1.00
2022-10-02T10:27:52.844Z,0.83
2022-10-02T10:30:50.251Z,0.93
2022-10-02T10:34:01.791Z,0.70
2022-10-02T10:37:17.729Z,0.60
2022-10-02T10:40:25.388Z,0.67
2022-10-02T10:43:08.306Z,0.90
2022-10-02T10:46:31.409Z,0.80
2022-10-02T10:49:33.073Z,0.50
2022-10-02T10:52:16.256Z,0.53
2022-10-02T10:55:05.277Z,0.90
2022-10-02T10:58:15.914Z,0.97
2022-10-02T11:00:56.210Z,0.90
2022-10-02T11:04:12.111Z,0.70
2022-10-02T11:07:14.943Z,1.00
2022-10-02T11:10:21.789Z,1.00
2022-10-02T11:13:16.089Z,0.90
2022-10-02T11:16:08.192Z,1.00
2022-10-02T11:19:11.923Z,0.90
2022-10-02T11:22:30.113Z,0.60
2022-10-02T11:25:32.939Z,0.90
2022-10-02T11:28:40.173Z,0.80
2022-10-02T11:31:28.832Z,1.03
2022-10-02T11:34:42.654Z,1.10
2022-10-02T11:37:38.712Z,1.07
2022-10-02T11:40:45.635Z,0.90
2022-10-02T11:43:41.741Z,1.37
2022-10-02T11:46:45.463Z,1.40
2022-10-02T11:49:40.232Z,1.10
2022-10-02T11:52:23.286Z,1.20
2022-10-02T11:55:26.177Z,0.80
2022-10-02T11:58:29.593Z,1.17
2022-10-02T12:01:24.360Z,0.87
2022-10-02T12:04:32.803Z,0.77
2022-10-02T12:07:23.507Z,1.00
2022-10-02T12:10:24.859Z,0.70
2022-10-02T12:13:01.706Z,0.63
2022-10-02T12:15:44.443Z,0.60
2022-10-02T12:18:22.113Z,1.07
2022-10-02T12:21:25.686Z,0.63
2022-10-02T12:24:32.622Z,0.80
2022-10-02T12:27:15.725Z,0.80
2022-10-02T12:30:04.619Z,0.77
2022-10-02T12:33:08.228Z,0.50
2022-10-02T12:35:47.779Z,0.57
2022-10-02T12:38:49.009Z,0.80
2022-10-02T12:41:46.968Z,0.87
2022-10-02T12:44:47.693Z,0.83
2022-10-02T12:47:53.288Z,0.60
2022-10-02T12:50:36.797Z,0.67
2022-10-02T12:53:19.337Z,0.70
2022-10-02T12:56:08.268Z,0.80
2022-10-02T12:59:03.977Z,0.80
2022-10-02T13:02:56.094Z,0.93
2022-10-02T13:05:08.126Z,0.70
2022-10-02T13:08:10.770Z,0.77
2022-10-02T13:11:04.234Z,0.63
2022-10-02T13:14:01.627Z,0.53
2022-10-02T13:16:49.754Z,0.90
2022-10-02T13:19:32.508Z,0.80
2022-10-02T13:22:21.799Z,0.50
2022-10-02T13:25:21.368Z,0.60
2022-10-02T13:28:21.001Z,0.67
2022-10-02T13:31:19.292Z,0.70
2022-10-02T13:34:02.360Z,0.80
2022-10-02T13:37:07.799Z,0.70
2022-10-02T13:39:59.524Z,0.53
2022-10-02T13:42:54.551Z,0.77
2022-10-02T13:45:37.023Z,0.40
2022-10-02T13:48:35.039Z,0.90
2022-10-02T13:51:36.372Z,0.70
2022-10-02T13:54:37.468Z,0.47
2022-10-02T13:57:44.586Z,0.33
2022-10-02T14:00:41.006Z,0.60
2022-10-02T14:03:17.753Z,0.50
2022-10-02T14:06:00.923Z,0.43
2022-10-02T14:09:03.955Z,0.47
2022-10-02T14:11:49.529Z,0.80
2022-10-02T14:14:53.654Z,0.57
2022-10-02T14:17:57.554Z,0.43
2022-10-02T14:20:56.023Z,0.50
2022-10-02T14:23:59.166Z,0.70
2022-10-02T14:26:54.129Z,0.50
2022-10-02T14:29:40.058Z,0.53
2022-10-02T14:32:33.727Z,0.33
2022-10-02T14:35:42.466Z,0.63
2022-10-02T14:38:49.369Z,0.77
2022-10-02T14:41:26.075Z,0.40
2022-10-02T14:44:25.828Z,0.60
2022-10-02T14:47:27.618Z,0.30
2022-10-02T14:50:23.307Z,0.50
2022-10-02T14:53:37.536Z,0.30
2022-10-02T14:56:51.041Z,0.37
2022-10-02T14:59:30.771Z,0.40
2022-10-02T15:02:10.682Z,0.40
2022-10-02T15:05:17.045Z,0.30
2022-10-02T15:07:48.340Z,0.40
2022-10-02T15:10:27.479Z,0.83
2022-10-02T15:13:18.744Z,0.40
2022-10-02T15:15:57.122Z,0.37
2022-10-02T15:18:38.542Z,0.50
2022-10-02T15:21:15.603Z,0.50
2022-10-02T15:23:50.364Z,0.50
2022-10-02T15:26:39.715Z,0.47
2022-10-02T15:29:21.026Z,0.30
2022-10-02T15:32:13.022Z,0.20
2022-10-02T15:35:09.282Z,0.27
2022-10-02T15:37:58.398Z,0.30
2022-10-02T15:40:58.712Z,0.20
2022-10-02T15:43:50.859Z,0.50
2022-10-02T15:46:27.820Z,0.50
2022-10-02T15:49:14.187Z,0.40
2022-10-02T15:52:10.350Z,0.50
2022-10-02T15:55:27.670Z,0.30
2022-10-02T15:58:24.369Z,0.40
2022-10-02T16:01:10.510Z,0.40
2022-10-02T16:03:50.866Z,0.40
2022-10-02T16:06:41.424Z,0.70
2022-10-02T16:09:40.610Z,0.50
2022-10-02T16:12:38.220Z,0.40
2022-10-02T16:15:27.054Z,0.20
2022-10-02T16:18:24.559Z,0.30
2022-10-02T16:21:47.179Z,0.30
2022-10-02T16:24:33.164Z,0.20
2022-10-02T16:27:35.291Z,0.30
2022-10-02T16:30:14.274Z,0.30
2022-10-02T16:33:14.146Z,0.33
2022-10-02T16:36:03.051Z,0.17
2022-10-02T16:38:54.798Z,0.30
2022-10-02T16:41:38.604Z,0.30
2022-10-02T16:44:27.496Z,0.10
2022-10-02T16:47:04.411Z,0.23
2022-10-02T16:49:57.444Z,0.20
2022-10-02T16:52:34.392Z,0.30
2022-10-02T16:55:37.883Z,0.33
2022-10-02T16:58:39.150Z,0.30
2022-10-02T17:02:05.926Z,0.30
2022-10-02T17:04:42.854Z,0.33
2022-10-02T17:07:30.052Z,0.40
2022-10-02T17:10:26.348Z,0.30
2022-10-02T17:13:08.957Z,0.20
2022-10-02T17:15:48.134Z,0.30
2022-10-02T17:18:43.509Z,0.43
2022-10-02T17:21:31.856Z,0.20
2022-10-02T17:24:38.240Z,0.50
2022-10-02T17:27:30.207Z,0.30
2022-10-02T17:30:16.656Z,0.30
2022-10-02T17:33:07.855Z,0.20
2022-10-02T17:35:48.912Z,0.40
2022-10-02T17:38:43.558Z,0.40
2022-10-02T17:41:33.088Z,0.40
2022-10-02T17:44:18.884Z,0.40
2022-10-02T17:47:17.656Z,0.50
2022-10-02T17:49:58.936Z,0.40
2022-10-02T17:53:08.089Z,0.50
2022-10-02T17:56:29.017Z,0.40
2022-10-02T17:59:24.165Z,0.40
2022-10-02T18:02:00.750Z,0.50
2022-10-02T18:04:50.908Z,0.47
2022-10-02T18:07:52.427Z,0.30
2022-10-02T18:10:48.418Z,0.43
2022-10-02T18:14:01.680Z,0.40
2022-10-02T18:16:55.817Z,0.47
2022-10-02T18:19:41.316Z,0.30
2022-10-02T18:22:34.749Z,0.50
2022-10-02T18:25:32.692Z,0.70
2022-10-02T18:28:25.053Z,0.60
2022-10-02T18:31:28.810Z,0.50
2022-10-02T18:34:20.373Z,0.60
2022-10-02T18:37:12.875Z,0.67
2022-10-02T18:40:04.769Z,0.60
2022-10-02T18:42:56.972Z,0.57
2022-10-02T18:45:55.060Z,0.60
2022-10-02T18:48:43.813Z,0.70
2022-10-02T18:51:43.284Z,0.50
2022-10-02T18:54:36.900Z,0.70
2022-10-02T18:57:16.536Z,0.60
2022-10-02T19:00:18.308Z,0.60
2022-10-02T19:03:15.964Z,0.83
2022-10-02T19:06:11.394Z,0.90
2022-10-02T19:09:07.317Z,0.83
2022-10-02T19:11:50.134Z,0.97
2022-10-02T19:14:42.885Z,1.00
2022-10-02T19:17:27.255Z,0.67
2022-10-02T19:19:58.734Z,0.70
2022-10-02T19:22:33.055Z,0.70
2022-10-02T19:25:16.218Z,0.80
2022-10-02T19:27:50.386Z,0.80
2022-10-02T19:30:26.813Z,0.60
2022-10-02T19:33:00.794Z,0.83
2022-10-02T19:35:43.379Z,0.90
2022-10-02T19:38:35.470Z,0.77
2022-10-02T19:41:14.322Z,0.77
2022-10-02T19:44:07.103Z,0.90
2022-10-02T19:46:49.583Z,0.50
2022-10-02T19:49:30.249Z,0.60
2022-10-02T19:52:00.043Z,0.60
2022-10-02T19:54:36.974Z,0.50
2022-10-02T19:57:18.129Z,0.63
2022-10-02T19:59:54.156Z,0.60
2022-10-02T20:02:34.133Z,0.83
2022-10-02T20:05:08.489Z,0.50
2022-10-02T20:07:40.412Z,0.40
2022-10-02T20:10:21.826Z,0.60
2022-10-02T20:13:07.869Z,0.40
2022-10-02T20:15:59.639Z,0.40
2022-10-02T20:18:29.484Z,0.53
2022-10-02T20:21:09.434Z,0.40
2022-10-02T20:23:41.547Z,0.60
2022-10-02T20:26:14.673Z,0.63
2022-10-02T20:29:00.918Z,0.40
2022-10-02T20:32:03.853Z,0.77
2022-10-02T20:34:46.561Z,0.60
2022-10-02T20:37:29.498Z,0.50
2022-10-02T20:40:15.840Z,0.50
2022-10-02T20:43:04.783Z,0.83
2022-10-02T20:45:44.768Z,0.67
2022-10-02T20:49:08.063Z,0.77
2022-10-02T20:51:44.015Z,0.70
2022-10-02T20:54:37.900Z,0.80
2022-10-02T20:58:00.621Z,0.60
2022-10-02T21:00:27.186Z,0.70
2022-10-02T21:03:25.131Z,0.67
2022-10-02T21:06:27.113Z,0.60
2022-10-02T21:09:24.840Z,0.70
2022-10-02T21:12:10.691Z,0.70
2022-10-02T21:15:05.319Z,0.90
2022-10-02T21:18:14.528Z,0.47
2022-10-02T21:21:08.411Z,0.70
2022-10-02T21:24:23.068Z,0.80
2022-10-02T21:26:57.510Z,0.87
2022-10-02T21:29:46.353Z,0.63
2022-10-02T21:33:05.702Z,0.80
2022-10-02T21:38:59.829Z,1.00
2022-10-02T21:42:14.230Z,1.10
2022-10-02T21:45:25.957Z,0.90
2022-10-02T21:48:11.510Z,0.73
2022-10-02T21:51:28.306Z,0.73
2022-10-02T21:54:32.657Z,0.90
2022-10-02T21:57:45.991Z,0.67
2022-10-02T22:00:31.502Z,0.77
2022-10-02T22:03:52.386Z,0.80
2022-10-02T22:06:36.473Z,0.70
2022-10-02T22:09:19.624Z,0.80
2022-10-02T22:12:14.566Z,0.83
2022-10-02T22:14:48.605Z,0.70
2022-10-02T22:17:48.533Z,0.87
2022-10-02T22:20:52.928Z,0.67
2022-10-02T22:23:47.332Z,0.90
2022-10-02T22:26:33.349Z,0.70
2022-10-02T22:29:31.038Z,0.57
2022-10-02T22:32:48.243Z,0.70
2022-10-02T22:35:34.112Z,0.97
2022-10-02T22:38:19.957Z,0.60
2022-10-02T22:40:56.836Z,0.83
2022-10-02T22:44:08.087Z,0.80
2022-10-02T22:46:58.667Z,0.80
2022-10-02T22:49:44.305Z,0.80
2022-10-02T22:52:50.144Z,0.60
2022-10-02T22:55:30.192Z,1.00
2022-10-02T22:58:22.232Z,0.87
2022-10-02T23:01:08.157Z,0.93
2022-10-02T23:04:03.105Z,0.70
2022-10-02T23:06:46.044Z,0.93
2022-10-02T23:09:41.092Z,0.80
2022-10-02T23:12:27.801Z,0.80
2022-10-02T23:15:25.523Z,0.70
2022-10-02T23:18:02.614Z,0.60
2022-10-02T23:20:49.235Z,0.90
2022-10-02T23:23:38.425Z,0.60
2022-10-02T23:26:21.274Z,0.63
2022-10-02T23:29:22.312Z,0.50
2022-10-02T23:32:27.733Z,0.60
2022-10-02T23:35:31.602Z,0.97
2022-10-02T23:38:23.778Z,0.50
2022-10-02T23:41:38.236Z,0.93
2022-10-02T23:44:37.190Z,0.70
2022-10-02T23:47:48.539Z,0.50
2022-10-02T23:50:37.532Z,0.80
2022-10-02T23:53:49.570Z,0.60
2022-10-02T23:56:35.737Z,0.90
2022-10-02T23:59:35.206Z,0.87
